sensor_id;sensor_type;location;lat;lon;timestamp;pressure;altitude;pressure_sealevel;temperature;humidity
70015;BME280;57358;51.094;6.760;2023-01-15T00:01:31;99471.16;;;6.52;100.00
70015;BME280;57358;51.094;6.760;2023-01-15T00:04:00;99569.19;;;7.02;100.00
70015;BME280;57358;51.094;6.760;2023-01-15T00:06:29;99585.00;;;6.99;100.00
70015;BME280;57358;51.094;6.760;2023-01-15T00:08:56;99533.59;;;6.53;100.00
70015;BME280;57358;51.094;6.760;2023-01-15T00:11:22;99515.13;;;6.42;100.00
70015;BME280;57358;51.094;6.760;2023-01-15T00:13:49;99603.19;;;6.85;100.00
70015;BME280;57358;51.094;6.760;2023-01-15T00:16:18;99437.03;;;5.75;100.00
70015;BME280;57358;51.094;6.760;2023-01-15T00:18:52;99595.59;;;6.64;100.00
70015;BME280;57358;51.094;6.760;2023-01-15T00:21:19;99630.66;;;6.58;100.00
70015;BME280;57358;51.094;6.760;2023-01-15T00:23:47;99600.19;;;6.43;100.00
70015;BME280;57358;51.094;6.760;2023-01-15T00:26:33;99446.19;;;5.49;100.00
70015;BME280;57358;51.094;6.760;2023-01-15T00:29:19;99619.44;;;6.41;100.00
70015;BME280;57358;51.094;6.760;2023-01-15T00:31:56;99560.75;;;6.00;100.00
70015;BME280;57358;51.094;6.760;2023-01-15T00:34:25;99632.94;;;6.31;100.00
70015;BME280;57358;51.094;6.760;2023-01-15T00:36:51;99642.59;;;6.29;100.00
70015;BME280;57358;51.094;6.760;2023-01-15T00:39:18;99579.34;;;5.92;100.00
70015;BME280;57358;51.094;6.760;2023-01-15T00:41:45;99573.00;;;5.98;100.00
70015;BME280;57358;51.094;6.760;2023-01-15T00:44:12;99573.78;;;6.00;100.00
70015;BME280;57358;51.094;6.760;2023-01-15T00:46:38;99622.25;;;6.20;100.00
70015;BME280;57358;51.094;6.760;2023-01-15T00:49:05;99517.28;;;5.50;100.00
70015;BME280;57358;51.094;6.760;2023-01-15T00:51:31;99601.66;;;6.15;100.00
70015;BME280;57358;51.094;6.760;2023-01-15T00:53:58;99616.78;;;6.07;100.00
70015;BME280;57358;51.094;6.760;2023-01-15T00:56:25;99494.84;;;5.30;100.00
70015;BME280;57358;51.094;6.760;2023-01-15T00:58:51;99478.47;;;5.28;100.00
70015;BME280;57358;51.094;6.760;2023-01-15T01:01:18;99592.53;;;6.07;100.00
70015;BME280;57358;51.094;6.760;2023-01-15T01:03:45;99577.28;;;5.99;100.00
70015;BME280;57358;51.094;6.760;2023-01-15T01:06:19;99584.78;;;6.05;100.00
70015;BME280;57358;51.094;6.760;2023-01-15T01:08:47;99593.34;;;6.07;100.00
70015;BME280;57358;51.094;6.760;2023-01-15T01:11:16;99554.16;;;5.75;100.00
70015;BME280;57358;51.094;6.760;2023-01-15T01:13:43;99598.81;;;6.03;100.00
70015;BME280;57358;51.094;6.760;2023-01-15T01:16:31;99602.41;;;6.00;100.00
70015;BME280;57358;51.094;6.760;2023-01-15T01:19:12;99568.28;;;5.87;100.00
70015;BME280;57358;51.094;6.760;2023-01-15T01:21:40;99586.88;;;5.98;100.00
70015;BME280;57358;51.094;6.760;2023-01-15T01:24:07;99596.44;;;5.98;100.00
70015;BME280;57358;51.094;6.760;2023-01-15T01:26:35;99507.25;;;5.42;100.00
70015;BME280;57358;51.094;6.760;2023-01-15T01:29:02;99640.41;;;6.04;100.00
70015;BME280;57358;51.094;6.760;2023-01-15T01:31:29;99621.41;;;6.02;100.00
70015;BME280;57358;51.094;6.760;2023-01-15T01:33:58;99620.16;;;6.09;100.00
70015;BME280;57358;51.094;6.760;2023-01-15T01:36:27;99643.78;;;6.06;100.00
70015;BME280;57358;51.094;6.760;2023-01-15T01:38:54;99639.47;;;6.05;100.00
70015;BME280;57358;51.094;6.760;2023-01-15T01:41:20;99594.06;;;5.76;100.00
70015;BME280;57358;51.094;6.760;2023-01-15T01:44:02;99635.72;;;6.11;100.00
70015;BME280;57358;51.094;6.760;2023-01-15T01:46:32;99637.72;;;6.06;100.00
70015;BME280;57358;51.094;6.760;2023-01-15T01:49:12;99559.03;;;5.47;100.00
70015;BME280;57358;51.094;6.760;2023-01-15T01:51:46;99623.50;;;5.95;100.00
70015;BME280;57358;51.094;6.760;2023-01-15T01:54:17;99624.53;;;5.91;100.00
70015;BME280;57358;51.094;6.760;2023-01-15T01:56:44;99594.19;;;5.73;100.00
70015;BME280;57358;51.094;6.760;2023-01-15T01:59:15;99612.56;;;5.87;100.00
70015;BME280;57358;51.094;6.760;2023-01-15T02:01:43;99627.41;;;5.85;100.00
70015;BME280;57358;51.094;6.760;2023-01-15T02:04:10;99640.59;;;5.82;100.00
70015;BME280;57358;51.094;6.760;2023-01-15T02:06:38;99620.69;;;5.81;100.00
70015;BME280;57358;51.094;6.760;2023-01-15T02:09:06;99539.31;;;5.43;100.00
70015;BME280;57358;51.094;6.760;2023-01-15T02:11:33;99567.31;;;5.55;100.00
70015;BME280;57358;51.094;6.760;2023-01-15T02:14:14;99611.28;;;5.78;100.00
70015;BME280;57358;51.094;6.760;2023-01-15T02:22:09;99607.84;;;5.78;100.00
70015;BME280;57358;51.094;6.760;2023-01-15T02:25:07;99607.66;;;5.81;100.00
70015;BME280;57358;51.094;6.760;2023-01-15T02:27:43;99605.16;;;5.79;100.00
70015;BME280;57358;51.094;6.760;2023-01-15T02:33:25;99488.72;;;5.31;100.00
70015;BME280;57358;51.094;6.760;2023-01-15T02:35:58;99569.16;;;5.88;100.00
70015;BME280;57358;51.094;6.760;2023-01-15T02:38:29;99574.38;;;5.88;100.00
70015;BME280;57358;51.094;6.760;2023-01-15T02:40:59;99552.84;;;5.67;100.00
70015;BME280;57358;51.094;6.760;2023-01-15T02:43:33;99559.13;;;5.80;100.00
70015;BME280;57358;51.094;6.760;2023-01-15T02:46:01;99549.66;;;5.62;100.00
70015;BME280;57358;51.094;6.760;2023-01-15T02:48:31;99589.13;;;5.87;100.00
70015;BME280;57358;51.094;6.760;2023-01-15T02:51:12;99532.19;;;5.46;100.00
70015;BME280;57358;51.094;6.760;2023-01-15T02:53:42;99539.56;;;5.55;100.00
70015;BME280;57358;51.094;6.760;2023-01-15T02:56:16;99521.72;;;5.48;100.00
70015;BME280;57358;51.094;6.760;2023-01-15T02:58:44;99485.06;;;5.17;100.00
70015;BME280;57358;51.094;6.760;2023-01-15T03:01:20;99476.50;;;5.15;100.00
70015;BME280;57358;51.094;6.760;2023-01-15T03:03:56;99553.16;;;5.60;100.00
70015;BME280;57358;51.094;6.760;2023-01-15T03:06:37;99591.28;;;5.79;100.00
70015;BME280;57358;51.094;6.760;2023-01-15T03:09:05;99335.00;;;4.32;100.00
70015;BME280;57358;51.094;6.760;2023-01-15T03:11:37;99593.97;;;5.77;100.00
70015;BME280;57358;51.094;6.760;2023-01-15T03:14:08;99577.19;;;5.83;100.00
70015;BME280;57358;51.094;6.760;2023-01-15T03:16:51;99568.59;;;5.81;100.00
70015;BME280;57358;51.094;6.760;2023-01-15T03:19:26;99556.91;;;5.90;100.00
70015;BME280;57358;51.094;6.760;2023-01-15T03:21:59;99548.09;;;5.92;100.00
70015;BME280;57358;51.094;6.760;2023-01-15T03:24:42;99533.47;;;5.72;100.00
70015;BME280;57358;51.094;6.760;2023-01-15T03:27:09;99447.66;;;5.20;100.00
70015;BME280;57358;51.094;6.760;2023-01-15T03:29:42;99545.28;;;5.79;100.00
70015;BME280;57358;51.094;6.760;2023-01-15T03:32:10;99557.38;;;5.80;100.00
70015;BME280;57358;51.094;6.760;2023-01-15T03:34:44;99539.06;;;5.82;100.00
70015;BME280;57358;51.094;6.760;2023-01-15T03:37:11;99478.63;;;5.42;100.00
70015;BME280;57358;51.094;6.760;2023-01-15T03:39:39;99523.75;;;5.58;100.00
70015;BME280;57358;51.094;6.760;2023-01-15T03:42:36;99535.69;;;5.80;100.00
70015;BME280;57358;51.094;6.760;2023-01-15T03:45:14;99529.66;;;5.79;100.00
70015;BME280;57358;51.094;6.760;2023-01-15T03:50:31;99546.13;;;5.80;100.00
70015;BME280;57358;51.094;6.760;2023-01-15T03:53:19;99482.13;;;5.41;100.00
70015;BME280;57358;51.094;6.760;2023-01-15T03:55:51;99544.28;;;5.82;100.00
70015;BME280;57358;51.094;6.760;2023-01-15T03:58:23;99546.13;;;5.80;100.00
70015;BME280;57358;51.094;6.760;2023-01-15T04:00:53;99454.53;;;5.21;100.00
70015;BME280;57358;51.094;6.760;2023-01-15T04:03:22;99461.66;;;5.17;100.00
70015;BME280;57358;51.094;6.760;2023-01-15T04:05:50;99557.59;;;5.76;100.00
70015;BME280;57358;51.094;6.760;2023-01-15T04:08:18;99525.84;;;5.52;100.00
70015;BME280;57358;51.094;6.760;2023-01-15T04:10:58;99535.25;;;5.54;100.00
70015;BME280;57358;51.094;6.760;2023-01-15T04:13:26;99554.47;;;5.69;100.00
70015;BME280;57358;51.094;6.760;2023-01-15T04:15:56;99547.66;;;5.67;100.00
70015;BME280;57358;51.094;6.760;2023-01-15T04:18:23;99546.66;;;5.69;100.00
70015;BME280;57358;51.094;6.760;2023-01-15T04:20:49;99560.44;;;5.71;100.00
70015;BME280;57358;51.094;6.760;2023-01-15T04:23:16;99539.69;;;5.70;100.00
70015;BME280;57358;51.094;6.760;2023-01-15T04:25:43;99456.00;;;5.09;100.00
70015;BME280;57358;51.094;6.760;2023-01-15T04:28:09;99497.38;;;5.31;100.00
70015;BME280;57358;51.094;6.760;2023-01-15T04:30:36;99545.88;;;5.67;100.00
70015;BME280;57358;51.094;6.760;2023-01-15T04:33:04;99544.75;;;5.55;100.00
70015;BME280;57358;51.094;6.760;2023-01-15T04:35:30;99553.94;;;5.63;100.00
70015;BME280;57358;51.094;6.760;2023-01-15T04:37:58;99557.47;;;5.62;100.00
70015;BME280;57358;51.094;6.760;2023-01-15T04:40:25;99429.22;;;4.90;100.00
70015;BME280;57358;51.094;6.760;2023-01-15T04:43:11;99554.38;;;5.71;100.00
70015;BME280;57358;51.094;6.760;2023-01-15T04:45:57;99556.59;;;5.78;100.00
70015;BME280;57358;51.094;6.760;2023-01-15T04:48:24;99478.78;;;5.39;100.00
70015;BME280;57358;51.094;6.760;2023-01-15T04:50:51;99463.41;;;5.34;100.00
70015;BME280;57358;51.094;6.760;2023-01-15T04:53:17;99534.50;;;5.70;100.00
70015;BME280;57358;51.094;6.760;2023-01-15T04:55:44;99543.91;;;5.72;100.00
70015;BME280;57358;51.094;6.760;2023-01-15T04:58:10;99421.88;;;4.98;100.00
70015;BME280;57358;51.094;6.760;2023-01-15T05:00:37;99490.72;;;5.26;100.00
70015;BME280;57358;51.094;6.760;2023-01-15T05:03:03;99470.28;;;5.18;100.00
70015;BME280;57358;51.094;6.760;2023-01-15T05:05:30;99480.16;;;5.29;100.00
70015;BME280;57358;51.094;6.760;2023-01-15T05:07:57;99552.41;;;5.76;100.00
70015;BME280;57358;51.094;6.760;2023-01-15T05:10:24;99537.47;;;5.62;100.00
70015;BME280;57358;51.094;6.760;2023-01-15T05:12:50;99530.66;;;5.59;100.00
70015;BME280;57358;51.094;6.760;2023-01-15T05:15:17;99543.69;;;5.59;100.00
70015;BME280;57358;51.094;6.760;2023-01-15T05:17:43;99504.13;;;5.35;100.00
70015;BME280;57358;51.094;6.760;2023-01-15T05:20:13;99558.81;;;5.69;100.00
70015;BME280;57358;51.094;6.760;2023-01-15T05:22:40;99561.50;;;5.67;100.00
70015;BME280;57358;51.094;6.760;2023-01-15T05:25:07;99514.53;;;5.35;100.00
70015;BME280;57358;51.094;6.760;2023-01-15T05:27:33;99563.88;;;5.72;100.00
70015;BME280;57358;51.094;6.760;2023-01-15T05:30:00;99560.22;;;5.76;100.00
70015;BME280;57358;51.094;6.760;2023-01-15T05:32:26;99558.75;;;5.70;100.00
70015;BME280;57358;51.094;6.760;2023-01-15T05:34:55;99431.13;;;4.86;100.00
70015;BME280;57358;51.094;6.760;2023-01-15T05:37:21;99522.94;;;5.40;100.00
70015;BME280;57358;51.094;6.760;2023-01-15T05:39:48;99303.97;;;4.12;100.00
70015;BME280;57358;51.094;6.760;2023-01-15T05:42:14;99535.25;;;5.54;100.00
70015;BME280;57358;51.094;6.760;2023-01-15T05:44:41;99555.31;;;5.70;100.00
70015;BME280;57358;51.094;6.760;2023-01-15T05:47:10;99475.31;;;5.21;100.00
70015;BME280;57358;51.094;6.760;2023-01-15T05:49:37;99576.28;;;5.84;100.00
70015;BME280;57358;51.094;6.760;2023-01-15T05:52:03;99536.63;;;5.62;100.00
70015;BME280;57358;51.094;6.760;2023-01-15T05:54:32;99568.78;;;5.78;100.00
70015;BME280;57358;51.094;6.760;2023-01-15T05:56:59;99564.59;;;5.75;100.00
70015;BME280;57358;51.094;6.760;2023-01-15T05:59:28;99519.88;;;5.50;100.00
70015;BME280;57358;51.094;6.760;2023-01-15T06:01:55;99575.19;;;5.71;100.00
70015;BME280;57358;51.094;6.760;2023-01-15T06:04:23;99515.19;;;5.39;100.00
70015;BME280;57358;51.094;6.760;2023-01-15T06:06:52;99564.97;;;5.68;100.00
70015;BME280;57358;51.094;6.760;2023-01-15T06:09:19;99561.13;;;5.75;100.00
70015;BME280;57358;51.094;6.760;2023-01-15T06:11:48;99550.41;;;5.64;100.00
70015;BME280;57358;51.094;6.760;2023-01-15T06:14:15;99584.22;;;5.81;100.00
70015;BME280;57358;51.094;6.760;2023-01-15T06:16:41;99586.00;;;5.80;100.00
70015;BME280;57358;51.094;6.760;2023-01-15T06:19:09;99576.22;;;5.68;100.00
70015;BME280;57358;51.094;6.760;2023-01-15T06:21:36;99542.81;;;5.24;100.00
70015;BME280;57358;51.094;6.760;2023-01-15T06:24:03;99594.44;;;5.68;100.00
70015;BME280;57358;51.094;6.760;2023-01-15T06:26:30;99524.84;;;5.19;100.00
70015;BME280;57358;51.094;6.760;2023-01-15T06:28:56;99540.59;;;5.34;100.00
70015;BME280;57358;51.094;6.760;2023-01-15T06:31:24;99522.59;;;5.12;100.00
70015;BME280;57358;51.094;6.760;2023-01-15T06:33:52;99553.44;;;5.37;100.00
70015;BME280;57358;51.094;6.760;2023-01-15T06:36:21;99584.63;;;5.56;100.00
70015;BME280;57358;51.094;6.760;2023-01-15T06:38:48;99599.88;;;5.64;100.00
70015;BME280;57358;51.094;6.760;2023-01-15T06:41:17;99595.63;;;5.61;100.00
70015;BME280;57358;51.094;6.760;2023-01-15T06:44:02;99526.75;;;5.16;100.00
70015;BME280;57358;51.094;6.760;2023-01-15T06:46:49;99608.13;;;5.54;100.00
70015;BME280;57358;51.094;6.760;2023-01-15T06:49:35;99602.63;;;5.60;100.00
70015;BME280;57358;51.094;6.760;2023-01-15T06:52:02;99606.28;;;5.56;100.00
70015;BME280;57358;51.094;6.760;2023-01-15T06:54:29;99574.25;;;5.37;100.00
70015;BME280;57358;51.094;6.760;2023-01-15T06:56:56;99579.16;;;5.43;100.00
70015;BME280;57358;51.094;6.760;2023-01-15T06:59:22;99599.94;;;5.62;100.00
70015;BME280;57358;51.094;6.760;2023-01-15T07:01:49;99524.97;;;5.16;100.00
70015;BME280;57358;51.094;6.760;2023-01-15T07:04:15;99530.41;;;5.12;100.00
70015;BME280;57358;51.094;6.760;2023-01-15T07:06:42;99614.78;;;5.60;100.00
70015;BME280;57358;51.094;6.760;2023-01-15T07:09:09;99609.59;;;5.60;100.00
70015;BME280;57358;51.094;6.760;2023-01-15T07:11:35;99576.88;;;5.37;100.00
70015;BME280;57358;51.094;6.760;2023-01-15T07:14:18;99607.22;;;5.55;100.00
70015;BME280;57358;51.094;6.760;2023-01-15T07:16:45;99614.09;;;5.56;100.00
70015;BME280;57358;51.094;6.760;2023-01-15T07:19:12;99585.31;;;5.42;100.00
70015;BME280;57358;51.094;6.760;2023-01-15T07:21:38;99593.09;;;5.42;100.00
70015;BME280;57358;51.094;6.760;2023-01-15T07:24:06;99616.69;;;5.56;100.00
70015;BME280;57358;51.094;6.760;2023-01-15T07:26:33;99617.75;;;5.52;100.00
70015;BME280;57358;51.094;6.760;2023-01-15T07:28:59;99604.50;;;5.39;100.00
70015;BME280;57358;51.094;6.760;2023-01-15T07:31:26;99622.19;;;5.50;100.00
70015;BME280;57358;51.094;6.760;2023-01-15T07:33:54;99627.94;;;5.57;100.00
70015;BME280;57358;51.094;6.760;2023-01-15T07:36:22;99503.00;;;4.68;100.00
70015;BME280;57358;51.094;6.760;2023-01-15T07:38:49;99563.53;;;5.08;100.00
70015;BME280;57358;51.094;6.760;2023-01-15T07:41:16;99642.25;;;5.48;100.00
70015;BME280;57358;51.094;6.760;2023-01-15T07:44:01;99636.56;;;5.40;100.00
70015;BME280;57358;51.094;6.760;2023-01-15T07:46:46;99656.88;;;5.51;100.00
70015;BME280;57358;51.094;6.760;2023-01-15T07:49:31;99606.53;;;5.15;100.00
70015;BME280;57358;51.094;6.760;2023-01-15T07:52:19;99607.38;;;5.16;100.00
70015;BME280;57358;51.094;6.760;2023-01-15T07:54:47;99329.25;;;3.51;100.00
70015;BME280;57358;51.094;6.760;2023-01-15T07:57:16;99651.59;;;5.52;100.00
70015;BME280;57358;51.094;6.760;2023-01-15T07:59:43;99604.13;;;5.11;100.00
70015;BME280;57358;51.094;6.760;2023-01-15T08:02:10;99636.47;;;5.24;100.00
70015;BME280;57358;51.094;6.760;2023-01-15T08:04:38;99672.03;;;5.60;100.00
70015;BME280;57358;51.094;6.760;2023-01-15T08:07:05;99680.63;;;5.62;100.00
70015;BME280;57358;51.094;6.760;2023-01-15T08:09:32;99684.00;;;5.64;100.00
70015;BME280;57358;51.094;6.760;2023-01-15T08:11:59;99617.59;;;5.19;100.00
70015;BME280;57358;51.094;6.760;2023-01-15T08:14:45;99676.91;;;5.49;100.00
70015;BME280;57358;51.094;6.760;2023-01-15T08:17:39;99720.50;;;5.63;100.00
70015;BME280;57358;51.094;6.760;2023-01-15T08:20:10;99672.06;;;5.41;100.00
70015;BME280;57358;51.094;6.760;2023-01-15T08:22:37;99726.00;;;5.56;100.00
70015;BME280;57358;51.094;6.760;2023-01-15T08:25:04;99711.03;;;5.43;99.00
70015;BME280;57358;51.094;6.760;2023-01-15T08:27:31;99723.56;;;5.53;97.82
70015;BME280;57358;51.094;6.760;2023-01-15T08:29:58;99701.13;;;5.32;95.74
70015;BME280;57358;51.094;6.760;2023-01-15T08:32:25;99710.75;;;5.49;95.08
70015;BME280;57358;51.094;6.760;2023-01-15T08:34:51;99564.97;;;4.58;94.44
70015;BME280;57358;51.094;6.760;2023-01-15T08:37:18;99707.72;;;5.39;94.22
70015;BME280;57358;51.094;6.760;2023-01-15T08:39:44;99710.91;;;5.46;94.81
70015;BME280;57358;51.094;6.760;2023-01-15T08:42:11;99643.38;;;4.87;94.23
70015;BME280;57358;51.094;6.760;2023-01-15T08:44:38;99521.84;;;4.16;94.53
70015;BME280;57358;51.094;6.760;2023-01-15T08:47:04;99514.19;;;4.13;95.65
70015;BME280;57358;51.094;6.760;2023-01-15T08:49:31;99707.88;;;5.17;95.70
70015;BME280;57358;51.094;6.760;2023-01-15T08:51:57;99693.53;;;5.08;97.73
70015;BME280;57358;51.094;6.760;2023-01-15T08:54:23;99681.22;;;4.93;98.89
70015;BME280;57358;51.094;6.760;2023-01-15T08:56:51;99614.00;;;4.47;98.38
70015;BME280;57358;51.094;6.760;2023-01-15T08:59:17;99630.13;;;4.54;100.00
70015;BME280;57358;51.094;6.760;2023-01-15T09:01:44;99659.31;;;4.79;100.00
70015;BME280;57358;51.094;6.760;2023-01-15T09:04:15;99712.16;;;4.99;100.00
70015;BME280;57358;51.094;6.760;2023-01-15T09:06:42;99622.34;;;4.54;100.00
70015;BME280;57358;51.094;6.760;2023-01-15T09:09:09;99696.22;;;4.88;100.00
70015;BME280;57358;51.094;6.760;2023-01-15T09:11:37;99663.16;;;4.71;100.00
70015;BME280;57358;51.094;6.760;2023-01-15T09:14:09;99701.25;;;4.91;100.00
70015;BME280;57358;51.094;6.760;2023-01-15T09:16:56;99653.00;;;4.46;100.00
70015;BME280;57358;51.094;6.760;2023-01-15T09:19:23;99724.75;;;4.89;100.00
70015;BME280;57358;51.094;6.760;2023-01-15T09:21:49;99480.28;;;3.58;100.00
70015;BME280;57358;51.094;6.760;2023-01-15T09:24:16;99698.88;;;4.86;100.00
70015;BME280;57358;51.094;6.760;2023-01-15T09:26:43;99690.34;;;4.83;100.00
70015;BME280;57358;51.094;6.760;2023-01-15T09:29:09;99686.91;;;4.82;100.00
70015;BME280;57358;51.094;6.760;2023-01-15T09:31:36;99657.13;;;4.70;100.00
70015;BME280;57358;51.094;6.760;2023-01-15T09:34:05;99588.81;;;4.29;100.00
70015;BME280;57358;51.094;6.760;2023-01-15T09:36:33;99725.66;;;5.26;100.00
70015;BME280;57358;51.094;6.760;2023-01-15T09:39:01;99710.13;;;5.25;100.00
70015;BME280;57358;51.094;6.760;2023-01-15T09:50:47;99745.47;;;5.67;95.89
70015;BME280;57358;51.094;6.760;2023-01-15T09:53:35;99727.66;;;5.76;93.98
70015;BME280;57358;51.094;6.760;2023-01-15T09:56:07;99714.72;;;5.75;92.17
70015;BME280;57358;51.094;6.760;2023-01-15T09:58:39;99650.47;;;5.39;91.39
70015;BME280;57358;51.094;6.760;2023-01-15T10:01:14;99699.50;;;5.85;90.78
70015;BME280;57358;51.094;6.760;2023-01-15T10:03:48;99584.66;;;5.37;89.74
70015;BME280;57358;51.094;6.760;2023-01-15T10:06:26;99694.03;;;6.26;88.74
70015;BME280;57358;51.094;6.760;2023-01-15T10:09:19;99697.03;;;6.35;87.22
70015;BME280;57358;51.094;6.760;2023-01-15T10:11:51;99679.25;;;6.26;87.30
70015;BME280;57358;51.094;6.760;2023-01-15T10:14:49;99676.44;;;6.47;84.79
70015;BME280;57358;51.094;6.760;2023-01-15T10:17:24;99595.63;;;5.97;83.71
70015;BME280;57358;51.094;6.760;2023-01-15T10:19:56;99674.13;;;6.58;82.17
70015;BME280;57358;51.094;6.760;2023-01-15T10:24:57;99681.06;;;6.75;81.73
70015;BME280;57358;51.094;6.760;2023-01-15T10:27:26;99667.38;;;6.87;79.71
70015;BME280;57358;51.094;6.760;2023-01-15T10:30:15;99639.69;;;6.85;78.38
70015;BME280;57358;51.094;6.760;2023-01-15T10:32:45;99554.75;;;6.31;78.64
70015;BME280;57358;51.094;6.760;2023-01-15T10:35:35;99612.16;;;6.63;78.38
70015;BME280;57358;51.094;6.760;2023-01-15T10:38:27;99640.44;;;6.71;78.43
70015;BME280;57358;51.094;6.760;2023-01-15T10:41:09;99658.56;;;6.90;78.03
70015;BME280;57358;51.094;6.760;2023-01-15T10:43:59;99651.16;;;6.98;78.43
70015;BME280;57358;51.094;6.760;2023-01-15T10:46:30;99665.13;;;7.13;78.31
70015;BME280;57358;51.094;6.760;2023-01-15T10:49:10;99609.50;;;6.96;77.09
70015;BME280;57358;51.094;6.760;2023-01-15T10:51:45;99638.13;;;6.98;78.06
70015;BME280;57358;51.094;6.760;2023-01-15T10:54:23;99638.97;;;7.14;78.21
70015;BME280;57358;51.094;6.760;2023-01-15T10:57:35;99631.03;;;7.32;77.77
70015;BME280;57358;51.094;6.760;2023-01-15T10:59:59;99605.44;;;7.23;76.00
70015;BME280;57358;51.094;6.760;2023-01-15T11:02:42;99588.88;;;7.24;75.46
70015;BME280;57358;51.094;6.760;2023-01-15T11:05:18;99388.63;;;6.21;74.36
70015;BME280;57358;51.094;6.760;2023-01-15T11:07:47;99584.28;;;7.43;73.80
70015;BME280;57358;51.094;6.760;2023-01-15T11:10:34;99596.88;;;7.67;73.58
70015;BME280;57358;51.094;6.760;2023-01-15T11:13:21;99589.81;;;7.53;73.20
70015;BME280;57358;51.094;6.760;2023-01-15T11:16:14;99567.81;;;7.27;73.14
70015;BME280;57358;51.094;6.760;2023-01-15T11:19:02;99579.09;;;7.27;74.29
70015;BME280;57358;51.094;6.760;2023-01-15T11:21:50;99581.94;;;7.38;74.47
70015;BME280;57358;51.094;6.760;2023-01-15T11:24:18;99599.38;;;7.68;74.52
70015;BME280;57358;51.094;6.760;2023-01-15T11:26:50;99539.25;;;7.39;73.09
70015;BME280;57358;51.094;6.760;2023-01-15T11:29:30;99572.13;;;7.58;72.33
70015;BME280;57358;51.094;6.760;2023-01-15T11:31:57;99424.69;;;6.74;71.98
70015;BME280;57358;51.094;6.760;2023-01-15T11:34:23;99544.03;;;7.47;72.91
70015;BME280;57358;51.094;6.760;2023-01-15T11:37:04;99566.69;;;7.47;73.25
70015;BME280;57358;51.094;6.760;2023-01-15T11:39:34;99552.56;;;7.35;73.32
70015;BME280;57358;51.094;6.760;2023-01-15T11:42:03;99552.03;;;7.14;74.77
70015;BME280;57358;51.094;6.760;2023-01-15T11:44:53;99497.97;;;6.70;75.51
70015;BME280;57358;51.094;6.760;2023-01-15T11:47:49;99500.06;;;6.63;75.39
70015;BME280;57358;51.094;6.760;2023-01-15T11:50:53;99466.78;;;6.36;76.39
70015;BME280;57358;51.094;6.760;2023-01-15T11:53:26;99568.09;;;7.22;76.40
70015;BME280;57358;51.094;6.760;2023-01-15T11:55:58;99570.25;;;7.30;76.36
70015;BME280;57358;51.094;6.760;2023-01-15T11:58:47;99573.09;;;7.41;75.18
70015;BME280;57358;51.094;6.760;2023-01-15T12:01:22;99567.47;;;7.63;74.82
70015;BME280;57358;51.094;6.760;2023-01-15T12:04:01;99540.06;;;7.56;74.68
70015;BME280;57358;51.094;6.760;2023-01-15T12:06:39;99501.78;;;7.41;73.67
70015;BME280;57358;51.094;6.760;2023-01-15T12:09:24;99523.72;;;7.52;74.48
70015;BME280;57358;51.094;6.760;2023-01-15T12:12:25;99515.16;;;7.65;73.28
70015;BME280;57358;51.094;6.760;2023-01-15T12:28:49;99527.13;;;7.38;73.85
70015;BME280;57358;51.094;6.760;2023-01-15T12:39:17;99502.78;;;7.83;72.93
70015;BME280;57358;51.094;6.760;2023-01-15T12:41:51;99430.50;;;7.69;71.38
70015;BME280;57358;51.094;6.760;2023-01-15T12:45:12;99473.22;;;7.96;70.79
70015;BME280;57358;51.094;6.760;2023-01-15T12:48:01;99470.88;;;8.06;70.16
70015;BME280;57358;51.094;6.760;2023-01-15T12:50:48;99435.41;;;7.73;70.93
70015;BME280;57358;51.094;6.760;2023-01-15T12:53:40;99393.00;;;7.70;70.16
70015;BME280;57358;51.094;6.760;2023-01-15T13:01:54;99433.84;;;7.56;71.45
70015;BME280;57358;51.094;6.760;2023-01-15T13:04:36;99451.00;;;7.61;71.69
70015;BME280;57358;51.094;6.760;2023-01-15T13:07:59;99360.34;;;7.19;70.88
70015;BME280;57358;51.094;6.760;2023-01-15T13:10:26;99451.75;;;7.91;70.64
70015;BME280;57358;51.094;6.760;2023-01-15T13:13:23;99437.56;;;7.81;71.05
70015;BME280;57358;51.094;6.760;2023-01-15T13:21:18;99340.25;;;7.36;70.04
70015;BME280;57358;51.094;6.760;2023-01-15T13:23:54;99397.75;;;7.63;69.52
70015;BME280;57358;51.094;6.760;2023-01-15T13:30:02;99424.50;;;7.95;69.65
70015;BME280;57358;51.094;6.760;2023-01-15T13:32:34;99397.66;;;7.65;70.55
70015;BME280;57358;51.094;6.760;2023-01-15T13:35:32;99427.59;;;7.73;69.91
70015;BME280;57358;51.094;6.760;2023-01-15T13:38:15;99354.41;;;7.32;70.30
70015;BME280;57358;51.094;6.760;2023-01-15T13:40:55;99426.47;;;7.63;70.39
70015;BME280;57358;51.094;6.760;2023-01-15T13:43:34;99421.53;;;7.58;70.77
70015;BME280;57358;51.094;6.760;2023-01-15T13:46:07;99431.03;;;7.45;70.60
70015;BME280;57358;51.094;6.760;2023-01-15T13:48:45;99448.56;;;7.43;71.12
70015;BME280;57358;51.094;6.760;2023-01-15T13:51:33;99277.53;;;6.50;70.83
70015;BME280;57358;51.094;6.760;2023-01-15T13:54:12;99341.50;;;6.86;70.64
70015;BME280;57358;51.094;6.760;2023-01-15T13:56:41;99315.78;;;6.79;70.77
70015;BME280;57358;51.094;6.760;2023-01-15T13:59:44;99407.22;;;7.21;70.07
70015;BME280;57358;51.094;6.760;2023-01-15T14:02:28;99417.09;;;7.16;70.11
70015;BME280;57358;51.094;6.760;2023-01-15T14:04:56;99437.88;;;7.17;70.61
70015;BME280;57358;51.094;6.760;2023-01-15T14:07:36;99386.59;;;7.02;70.28
70015;BME280;57358;51.094;6.760;2023-01-15T14:10:22;99355.97;;;6.75;69.83
70015;BME280;57358;51.094;6.760;2023-01-15T14:18:56;99433.19;;;7.08;70.65
70015;BME280;57358;51.094;6.760;2023-01-15T14:21:40;99292.91;;;6.24;70.97
70015;BME280;57358;51.094;6.760;2023-01-15T14:24:19;99448.78;;;7.10;71.16
70015;BME280;57358;51.094;6.760;2023-01-15T14:27:04;99463.31;;;7.14;72.29
70015;BME280;57358;51.094;6.760;2023-01-15T14:32:59;99458.19;;;7.12;72.12
70015;BME280;57358;51.094;6.760;2023-01-15T14:35:41;99478.47;;;7.07;72.59
70015;BME280;57358;51.094;6.760;2023-01-15T14:38:15;99463.75;;;7.06;72.84
70015;BME280;57358;51.094;6.760;2023-01-15T14:40:58;99473.69;;;6.99;72.92
70015;BME280;57358;51.094;6.760;2023-01-15T14:43:28;99477.38;;;6.95;72.14
70015;BME280;57358;51.094;6.760;2023-01-15T14:46:12;99422.06;;;6.44;73.68